createdAt,value
2022-08-01T00:00:18.161Z,100.00
2022-08-01T00:02:47.133Z,100.00
2022-08-01T00:05:16.511Z,100.00
2022-08-01T00:07:45.753Z,100.00
2022-08-01T00:10:18.038Z,100.00
2022-08-01T00:12:47.066Z,100.00
2022-08-01T00:15:19.440Z,100.00
2022-08-01T00:17:48.418Z,100.00
2022-08-01T00:20:17.474Z,100.00
2022-08-01T00:22:46.475Z,100.00
2022-08-01T00:25:15.509Z,100.00
2022-08-01T00:27:44.381Z,100.00
2022-08-01T00:30:14.919Z,100.00
2022-08-01T00:32:45.566Z,100.00
2022-08-01T00:35:14.906Z,100.00
2022-08-01T00:37:45.066Z,100.00
2022-08-01T00:40:14.211Z,100.00
2022-08-01T00:42:43.921Z,100.00
2022-08-01T00:45:13.590Z,100.00
2022-08-01T00:47:44.081Z,100.00
2022-08-01T00:50:13.715Z,100.00
2022-08-01T00:52:51.574Z,100.00
2022-08-01T00:55:22.264Z,100.00
2022-08-01T00:58:02.491Z,100.00
2022-08-01T01:00:53.096Z,100.00
2022-08-01T01:06:29.104Z,100.00
2022-08-01T01:09:19.191Z,100.00
2022-08-01T01:12:02.487Z,100.00
2022-08-01T01:14:47.649Z,100.00
2022-08-01T01:17:50.254Z,100.00
2022-08-01T01:20:18.647Z,100.00
2022-08-01T01:23:21.356Z,100.00
2022-08-01T01:26:34.082Z,100.00
2022-08-01T01:29:23.586Z,100.00
2022-08-01T01:31:59.781Z,100.00
2022-08-01T01:34:34.139Z,100.00
2022-08-01T01:37:06.819Z,100.00
2022-08-01T01:39:38.767Z,100.00
2022-08-01T01:42:08.839Z,100.00
2022-08-01T01:44:41.217Z,100.00
2022-08-01T01:47:10.830Z,100.00
2022-08-01T01:49:42.104Z,100.00
2022-08-01T01:52:14.869Z,100.00
2022-08-01T01:54:50.900Z,100.00
2022-08-01T01:57:21.982Z,100.00
2022-08-01T01:59:55.272Z,100.00
2022-08-01T02:02:26.690Z,100.00
2022-08-01T02:05:00.655Z,100.00
2022-08-01T02:07:34.400Z,100.00
2022-08-01T02:10:07.053Z,100.00
2022-08-01T02:12:41.081Z,100.00
2022-08-01T02:15:15.167Z,100.00
2022-08-01T02:17:52.014Z,100.00
2022-08-01T02:20:21.185Z,100.00
2022-08-01T02:22:54.260Z,100.00
2022-08-01T02:25:27.633Z,100.00
2022-08-01T02:28:06.662Z,100.00
2022-08-01T02:30:40.057Z,100.00
2022-08-01T02:33:18.362Z,100.00
2022-08-01T02:36:32.166Z,100.00
2022-08-01T02:38:47.706Z,100.00
2022-08-01T02:41:24.082Z,100.00
2022-08-01T02:44:00.906Z,100.00
2022-08-01T02:46:38.481Z,100.00
2022-08-01T02:49:12.413Z,100.00
2022-08-01T02:51:43.948Z,100.00
2022-08-01T02:54:14.056Z,100.00
2022-08-01T02:56:45.078Z,100.00
2022-08-01T02:59:21.421Z,100.00
2022-08-01T03:01:55.298Z,100.00
2022-08-01T03:04:26.649Z,100.00
2022-08-01T03:06:59.573Z,100.00
2022-08-01T03:09:34.000Z,100.00
2022-08-01T03:12:08.715Z,100.00
2022-08-01T03:14:41.865Z,100.00
2022-08-01T03:17:14.266Z,100.00
2022-08-01T03:19:47.381Z,100.00
2022-08-01T03:22:19.244Z,100.00
2022-08-01T03:25:41.777Z,100.00
2022-08-01T03:28:15.433Z,100.00
2022-08-01T03:30:46.423Z,100.00
2022-08-01T03:33:16.977Z,100.00
2022-08-01T03:35:51.523Z,100.00
2022-08-01T03:38:25.634Z,100.00
2022-08-01T03:41:01.027Z,100.00
2022-08-01T03:43:37.974Z,100.00
2022-08-01T03:46:15.407Z,100.00
2022-08-01T03:48:52.996Z,100.00
2022-08-01T03:51:25.397Z,100.00
2022-08-01T03:53:57.434Z,100.00
2022-08-01T03:56:28.126Z,100.00
2022-08-01T03:58:58.164Z,100.00
2022-08-01T04:01:28.101Z,100.00
2022-08-01T04:04:00.647Z,100.00
2022-08-01T04:06:29.671Z,100.00
2022-08-01T04:08:58.747Z,100.00
2022-08-01T04:11:30.038Z,100.00
2022-08-01T04:13:59.286Z,100.00
2022-08-01T04:16:28.267Z,100.00
2022-08-01T04:18:58.718Z,100.00
2022-08-01T04:21:33.021Z,100.00
2022-08-01T04:24:08.679Z,100.00
2022-08-01T04:26:40.658Z,100.00
2022-08-01T04:29:13.003Z,100.00
2022-08-01T04:31:45.737Z,100.00
2022-08-01T04:34:21.694Z,100.00
2022-08-01T04:36:54.422Z,100.00
2022-08-01T04:39:28.484Z,100.00
2022-08-01T04:42:01.093Z,100.00
2022-08-01T04:44:32.727Z,100.00
2022-08-01T04:47:04.688Z,100.00
2022-08-01T04:49:47.691Z,100.00
2022-08-01T04:52:22.957Z,100.00
2022-08-01T04:54:53.729Z,100.00
2022-08-01T04:57:22.766Z,100.00
2022-08-01T04:59:57.772Z,100.00
2022-08-01T05:02:29.228Z,100.00
2022-08-01T05:04:59.462Z,100.00
2022-08-01T05:07:28.627Z,100.00
2022-08-01T05:09:57.603Z,100.00
2022-08-01T05:12:26.745Z,100.00
2022-08-01T05:14:55.689Z,100.00
2022-08-01T05:17:24.636Z,100.00
2022-08-01T05:19:53.644Z,100.00
2022-08-01T05:22:26.537Z,100.00
2022-08-01T05:24:55.421Z,100.00
2022-08-01T05:27:24.393Z,100.00
2022-08-01T05:29:55.763Z,100.00
2022-08-01T05:32:26.613Z,100.00
2022-08-01T05:34:55.923Z,100.00
2022-08-01T05:37:26.282Z,100.00
2022-08-01T05:39:55.255Z,100.00
2022-08-01T05:42:24.158Z,100.00
2022-08-01T05:44:53.284Z,100.00
2022-08-01T05:47:22.104Z,100.00
2022-08-01T05:49:51.068Z,100.00
2022-08-01T05:52:20.136Z,100.00
2022-08-01T05:54:50.461Z,100.00
2022-08-01T05:57:20.534Z,100.00
2022-08-01T05:59:49.465Z,100.00
2022-08-01T06:02:18.850Z,100.00
2022-08-01T06:04:47.898Z,100.00
2022-08-01T06:07:16.767Z,100.00
2022-08-01T06:09:45.732Z,100.00
2022-08-01T06:12:15.947Z,100.00
2022-08-01T06:14:44.957Z,100.00
2022-08-01T06:17:13.990Z,100.00
2022-08-01T06:19:42.859Z,100.00
2022-08-01T06:22:11.876Z,100.00
2022-08-01T06:24:40.860Z,100.00
2022-08-01T06:27:21.551Z,100.00
2022-08-01T06:29:54.489Z,100.00
2022-08-01T06:32:27.108Z,100.00
2022-08-01T06:34:57.308Z,100.00
2022-08-01T06:37:30.424Z,100.00
2022-08-01T06:40:02.585Z,100.00
2022-08-01T06:42:32.579Z,99.97
2022-08-01T06:45:02.848Z,100.00
2022-08-01T06:47:31.749Z,100.00
2022-08-01T06:50:00.861Z,100.00
2022-08-01T06:52:30.060Z,100.00
2022-08-01T06:54:59.072Z,100.00
2022-08-01T06:57:28.114Z,100.00
2022-08-01T06:59:57.809Z,99.86
2022-08-01T07:02:28.054Z,99.71
2022-08-01T07:05:01.120Z,100.00
2022-08-01T07:07:30.019Z,98.60
2022-08-01T07:09:59.135Z,98.03
2022-08-01T07:12:28.001Z,97.69
2022-08-01T07:14:57.222Z,96.97
2022-08-01T07:17:27.493Z,96.52
2022-08-01T07:19:57.841Z,96.39
2022-08-01T07:22:26.878Z,95.23
2022-08-01T07:24:55.850Z,94.42
2022-08-01T07:27:25.996Z,92.98
2022-08-01T07:29:55.320Z,93.78
2022-08-01T07:32:26.487Z,91.71
2022-08-01T07:34:55.391Z,92.31
2022-08-01T07:37:45.267Z,91.10
2022-08-01T07:40:14.290Z,90.83
2022-08-01T07:42:44.439Z,88.24
2022-08-01T07:45:14.195Z,87.45
2022-08-01T07:47:45.087Z,88.26
2022-08-01T07:50:14.662Z,87.37
2022-08-01T07:52:44.788Z,88.34
2022-08-01T07:55:16.488Z,86.07
2022-08-01T07:57:45.957Z,86.26
2022-08-01T08:00:16.042Z,82.78
2022-08-01T08:02:46.660Z,82.25
2022-08-01T08:05:15.552Z,80.45
2022-08-01T08:08:04.516Z,76.57
2022-08-01T08:10:33.752Z,75.68
2022-08-01T08:13:03.048Z,74.90
2022-08-01T08:15:32.174Z,74.66
2022-08-01T08:18:05.625Z,71.87
2022-08-01T08:20:34.611Z,70.11
2022-08-01T08:23:41.377Z,68.48
2022-08-01T08:26:13.208Z,66.96
2022-08-01T08:28:42.397Z,64.03
2022-08-01T08:31:25.128Z,62.95
2022-08-01T08:34:01.640Z,62.27
2022-08-01T08:36:31.991Z,60.28
2022-08-01T08:39:01.657Z,60.30
2022-08-01T08:41:37.683Z,59.01
2022-08-01T08:44:10.855Z,58.73
2022-08-01T08:46:45.359Z,57.20
2022-08-01T08:49:22.118Z,58.15
2022-08-01T08:51:54.043Z,56.52
2022-08-01T08:54:29.131Z,53.42
2022-08-01T08:57:02.663Z,54.10
2022-08-01T08:59:32.005Z,54.94
2022-08-01T09:02:01.760Z,53.57
2022-08-01T09:04:33.003Z,51.98
2022-08-01T09:07:02.111Z,51.14
2022-08-01T09:09:31.026Z,51.63
2022-08-01T09:12:01.693Z,51.14
2022-08-01T09:14:32.437Z,50.95
2022-08-01T09:17:04.660Z,49.74
2022-08-01T09:19:44.605Z,50.94
2022-08-01T09:22:19.057Z,49.98
2022-08-01T09:25:03.127Z,51.23
2022-08-01T09:27:32.743Z,49.71
2022-08-01T09:30:13.188Z,50.79
2022-08-01T09:33:01.580Z,50.46
2022-08-01T09:35:36.316Z,49.45
2022-08-01T09:38:18.662Z,49.60
2022-08-01T09:40:50.921Z,49.32
2022-08-01T09:43:21.714Z,49.94
2022-08-01T09:45:53.426Z,50.52
2022-08-01T09:48:28.706Z,48.67
2022-08-01T09:51:07.193Z,49.65
2022-08-01T09:53:52.540Z,50.29
2022-08-01T09:56:24.250Z,49.73
2022-08-01T09:59:02.404Z,50.44
2022-08-01T10:01:45.631Z,50.13
2022-08-01T10:04:18.535Z,49.84
2022-08-01T10:06:53.652Z,49.20
2022-08-01T10:09:35.868Z,48.88
2022-08-01T10:12:15.824Z,48.87
2022-08-01T10:14:50.426Z,49.81
2022-08-01T10:17:22.586Z,49.01
2022-08-01T10:19:55.633Z,48.54
2022-08-01T10:22:35.654Z,47.68
2022-08-01T10:25:08.564Z,47.28
2022-08-01T10:27:41.077Z,46.17
2022-08-01T10:30:20.166Z,46.92
2022-08-01T10:32:55.134Z,47.07
2022-08-01T10:35:46.018Z,46.47
2022-08-01T10:38:16.425Z,46.42
2022-08-01T10:40:46.878Z,45.57
2022-08-01T10:43:21.450Z,44.92
2022-08-01T10:45:52.978Z,43.94
2022-08-01T10:48:29.752Z,44.05
2022-08-01T10:51:04.660Z,45.25
2022-08-01T10:53:54.310Z,43.65
2022-08-01T10:56:26.420Z,42.44
2022-08-01T10:59:06.713Z,43.44
2022-08-01T11:01:45.411Z,41.98
2022-08-01T11:04:17.587Z,42.25
2022-08-01T11:07:07.069Z,42.98
2022-08-01T11:09:51.793Z,43.12
2022-08-01T11:12:24.610Z,42.87
2022-08-01T11:15:31.275Z,44.21
2022-08-01T11:18:27.419Z,43.05
2022-08-01T11:21:59.363Z,44.05
2022-08-01T11:23:54.498Z,44.16
2022-08-01T11:26:28.744Z,43.72
2022-08-01T11:29:28.823Z,43.89
2022-08-01T11:32:28.709Z,44.89
2022-08-01T11:35:01.799Z,44.39
2022-08-01T11:37:31.784Z,44.23
2022-08-01T11:40:17.867Z,44.30
2022-08-01T11:42:48.671Z,45.55
2022-08-01T11:45:18.650Z,44.56
2022-08-01T11:47:50.835Z,44.89
2022-08-01T11:50:39.171Z,45.12
2022-08-01T11:53:11.359Z,45.38
2022-08-01T11:55:51.455Z,45.50
2022-08-01T11:58:27.516Z,44.88
2022-08-01T12:01:00.865Z,45.73
2022-08-01T12:03:34.324Z,46.42
2022-08-01T12:06:04.167Z,46.26
2022-08-01T12:08:37.931Z,47.06
2022-08-01T12:11:07.639Z,45.09
2022-08-01T12:13:46.237Z,45.46
2022-08-01T12:16:15.453Z,44.18
2022-08-01T12:18:45.446Z,45.38
2022-08-01T12:21:15.925Z,45.10
2022-08-01T12:23:44.806Z,44.11
2022-08-01T12:26:28.294Z,44.82
2022-08-01T12:29:02.514Z,43.99
2022-08-01T12:31:35.090Z,45.20
2022-08-01T12:34:32.734Z,43.70
2022-08-01T12:37:04.511Z,42.30
2022-08-01T12:39:40.254Z,41.74
2022-08-01T12:42:11.622Z,42.58
2022-08-01T12:44:45.975Z,42.49
2022-08-01T12:47:16.480Z,42.09
2022-08-01T12:49:47.214Z,41.15
2022-08-01T12:52:23.231Z,41.59
2022-08-01T12:55:12.011Z,42.61
2022-08-01T12:57:45.561Z,41.61
2022-08-01T13:00:21.116Z,41.06
2022-08-01T13:03:01.495Z,42.08
2022-08-01T13:05:30.459Z,43.30
2022-08-01T13:08:02.328Z,42.93
2022-08-01T13:10:33.553Z,41.81
2022-08-01T13:13:02.530Z,43.25
2022-08-01T13:15:35.971Z,42.23
2022-08-01T13:18:29.467Z,43.77
2022-08-01T13:21:14.406Z,43.73
2022-08-01T13:24:04.023Z,43.42
2022-08-01T13:26:45.134Z,43.23
2022-08-01T13:29:17.149Z,41.60
2022-08-01T13:31:47.576Z,42.03
2022-08-01T13:34:18.582Z,41.67
2022-08-01T13:36:49.788Z,43.10
2022-08-01T13:39:36.197Z,41.21
2022-08-01T13:42:06.029Z,39.89
2022-08-01T13:44:35.267Z,40.48
2022-08-01T13:47:14.930Z,41.18
2022-08-01T13:49:44.669Z,40.47
2022-08-01T13:52:13.738Z,41.04
2022-08-01T13:54:42.679Z,40.63
2022-08-01T13:57:11.744Z,39.96
2022-08-01T13:59:40.804Z,40.48
2022-08-01T14:02:11.095Z,39.29
2022-08-01T14:04:40.044Z,39.67
2022-08-01T14:07:14.544Z,40.23
2022-08-01T14:09:57.794Z,39.31
2022-08-01T14:12:33.165Z,39.83
2022-08-01T14:15:02.717Z,39.90
2022-08-01T14:17:34.613Z,40.13
2022-08-01T14:20:08.047Z,40.37
2022-08-01T14:22:37.103Z,39.37
2022-08-01T14:25:07.285Z,40.19
2022-08-01T14:27:37.381Z,38.46
2022-08-01T14:30:08.605Z,39.28
2022-08-01T14:32:39.006Z,39.24
2022-08-01T14:35:09.631Z,39.51
2022-08-01T14:37:38.710Z,39.25
2022-08-01T14:40:11.467Z,38.73
2022-08-01T14:42:41.070Z,38.35
2022-08-01T14:45:11.836Z,39.33
2022-08-01T14:47:44.910Z,39.74
2022-08-01T14:50:17.180Z,38.89
2022-08-01T14:52:46.720Z,39.42
2022-08-01T14:55:15.746Z,38.63
2022-08-01T14:57:44.650Z,38.72
2022-08-01T15:00:14.939Z,39.07
2022-08-01T15:02:47.795Z,39.10
2022-08-01T15:05:20.620Z,39.88
2022-08-01T15:07:52.711Z,40.71
2022-08-01T15:10:23.977Z,42.76
2022-08-01T15:12:53.039Z,42.81
2022-08-01T15:15:22.432Z,42.18
2022-08-01T15:17:53.511Z,42.30
2022-08-01T15:20:22.725Z,42.16
2022-08-01T15:22:51.747Z,42.43
2022-08-01T15:25:21.047Z,42.70
2022-08-01T15:27:50.273Z,42.53
2022-08-01T15:30:23.464Z,42.94
2022-08-01T15:32:57.607Z,42.82
2022-08-01T15:35:26.510Z,42.71
2022-08-01T15:37:55.413Z,43.18
2022-08-01T15:40:24.375Z,43.86
2022-08-01T15:42:54.181Z,43.31
2022-08-01T15:45:46.410Z,44.13
2022-08-01T15:48:13.585Z,43.30
2022-08-01T15:50:42.706Z,43.86
2022-08-01T15:53:11.685Z,43.73
2022-08-01T15:55:40.836Z,44.55
2022-08-01T15:58:09.994Z,44.04
2022-08-01T16:00:40.783Z,45.08
2022-08-01T16:03:10.908Z,44.70
2022-08-01T16:05:44.184Z,45.25
2022-08-01T16:08:14.620Z,45.07
2022-08-01T16:10:44.048Z,45.39
2022-08-01T16:13:13.824Z,45.69
2022-08-01T16:15:42.931Z,45.73
2022-08-01T16:18:14.507Z,45.91
2022-08-01T16:20:46.090Z,46.38
2022-08-01T16:23:16.185Z,46.10
2022-08-01T16:25:46.059Z,46.55
2022-08-01T16:28:15.076Z,46.98
2022-08-01T16:30:47.983Z,46.80
2022-08-01T16:33:40.469Z,47.67
2022-08-01T16:36:17.263Z,47.42
2022-08-01T16:38:46.889Z,47.61
2022-08-01T16:41:19.227Z,47.34
2022-08-01T16:43:53.953Z,48.43
2022-08-01T16:46:25.537Z,47.99
2022-08-01T16:48:55.254Z,48.07
2022-08-01T16:51:25.862Z,48.62
2022-08-01T16:53:54.793Z,48.39
2022-08-01T16:56:23.721Z,49.90
2022-08-01T16:58:52.616Z,50.64
2022-08-01T17:01:57.943Z,49.35
2022-08-01T17:04:10.589Z,49.58
2022-08-01T17:06:40.876Z,49.40
2022-08-01T17:09:10.021Z,50.19
2022-08-01T17:11:39.178Z,49.91
2022-08-01T17:14:08.134Z,49.90
2022-08-01T17:16:37.189Z,50.04
2022-08-01T17:19:06.233Z,49.90
2022-08-01T17:21:36.427Z,50.12
2022-08-01T17:24:09.881Z,50.52
2022-08-01T17:26:40.622Z,50.63
2022-08-01T17:29:09.729Z,50.61
2022-08-01T17:31:38.828Z,51.23
2022-08-01T17:34:07.731Z,51.37
2022-08-01T17:36:36.703Z,51.45
2022-08-01T17:39:08.159Z,52.00
2022-08-01T17:41:38.750Z,51.80
2022-08-01T17:44:07.978Z,52.87
2022-08-01T17:46:37.063Z,53.04
2022-08-01T17:49:06.795Z,52.86
2022-08-01T17:51:35.794Z,53.11
2022-08-01T17:54:05.281Z,52.94
2022-08-01T17:56:38.581Z,52.80
2022-08-01T17:59:16.442Z,53.37
2022-08-01T18:01:45.588Z,53.33
2022-08-01T18:04:14.541Z,53.77
2022-08-01T18:07:10.473Z,53.68
2022-08-01T18:09:33.688Z,55.61
2022-08-01T18:12:13.198Z,54.94
2022-08-01T18:14:44.339Z,55.66
2022-08-01T18:17:14.426Z,55.79
2022-08-01T18:19:46.848Z,56.02
2022-08-01T18:22:31.308Z,56.45
2022-08-01T18:25:07.519Z,58.47
2022-08-01T18:28:16.388Z,57.75
2022-08-01T18:30:29.093Z,59.76
2022-08-01T18:32:58.253Z,59.35
2022-08-01T18:35:51.643Z,59.29
2022-08-01T18:38:17.161Z,59.63
2022-08-01T18:40:46.108Z,60.26
2022-08-01T18:43:15.107Z,60.10
2022-08-01T18:45:45.475Z,62.05
2022-08-01T18:48:14.513Z,61.98
2022-08-01T18:50:43.503Z,62.54
2022-08-01T18:53:12.418Z,62.33
2022-08-01T18:55:44.869Z,62.62
2022-08-01T18:58:14.388Z,63.79
2022-08-01T19:00:44.680Z,64.70
2022-08-01T19:03:15.423Z,64.80
2022-08-01T19:05:44.773Z,65.90
2022-08-01T19:08:13.903Z,66.90
2022-08-01T19:10:43.797Z,66.69
2022-08-01T19:13:18.218Z,66.70
2022-08-01T19:15:51.919Z,68.00
2022-08-01T19:18:20.894Z,69.62
2022-08-01T19:20:51.643Z,71.67
2022-08-01T19:23:41.125Z,72.86
2022-08-01T19:26:16.933Z,70.50
2022-08-01T19:28:54.666Z,72.32
2022-08-01T19:31:28.676Z,76.72
2022-08-01T19:33:59.961Z,77.57
2022-08-01T19:36:28.944Z,77.69
2022-08-01T19:38:58.080Z,78.66
2022-08-01T19:41:27.270Z,79.93
2022-08-01T19:44:01.872Z,82.27
2022-08-01T19:46:32.730Z,82.40
2022-08-01T19:49:02.127Z,83.88
2022-08-01T19:51:38.349Z,84.68
2022-08-01T19:54:12.055Z,85.49
2022-08-01T19:56:47.185Z,86.27
2022-08-01T19:59:18.982Z,85.34
2022-08-01T20:01:54.292Z,84.46
2022-08-01T20:04:25.179Z,85.08
2022-08-01T20:06:55.343Z,87.63
2022-08-01T20:09:29.017Z,89.11
2022-08-01T20:12:00.286Z,88.23
2022-08-01T20:14:29.708Z,90.38
2022-08-01T20:17:00.321Z,89.88
2022-08-01T20:19:30.584Z,91.92
2022-08-01T20:22:06.282Z,93.69
2022-08-01T20:24:42.003Z,92.60
2022-08-01T20:27:18.554Z,93.79
2022-08-01T20:29:53.088Z,94.41
2022-08-01T20:32:25.319Z,94.97
2022-08-01T20:34:55.540Z,98.77
2022-08-01T20:38:03.804Z,100.00
2022-08-01T20:40:17.465Z,97.12
2022-08-01T20:42:52.806Z,100.00
2022-08-01T20:45:26.967Z,100.00
2022-08-01T20:48:01.022Z,100.00
2022-08-01T20:50:53.062Z,100.00
2022-08-01T20:53:26.787Z,100.00
2022-08-01T20:56:05.666Z,100.00
2022-08-01T20:58:58.749Z,100.00
2022-08-01T21:01:31.110Z,100.00
2022-08-01T21:04:14.601Z,100.00
2022-08-01T21:06:51.219Z,100.00
2022-08-01T21:09:28.015Z,100.00
2022-08-01T21:12:21.464Z,100.00
2022-08-01T21:14:54.203Z,100.00
2022-08-01T21:17:49.682Z,100.00
2022-08-01T21:20:23.237Z,100.00
2022-08-01T21:23:06.322Z,100.00
2022-08-01T21:25:36.708Z,100.00
2022-08-01T21:28:06.530Z,100.00
2022-08-01T21:30:37.687Z,100.00
2022-08-01T21:33:10.745Z,100.00
2022-08-01T21:35:41.992Z,100.00
2022-08-01T21:38:10.922Z,100.00
2022-08-01T21:40:39.854Z,100.00
2022-08-01T21:43:09.937Z,100.00
2022-08-01T21:45:40.017Z,100.00
2022-08-01T21:48:30.726Z,100.00
2022-08-01T21:51:12.212Z,100.00
2022-08-01T21:53:51.521Z,100.00
2022-08-01T21:56:32.876Z,100.00
2022-08-01T21:59:17.003Z,100.00
2022-08-01T22:01:57.442Z,100.00
2022-08-01T22:04:39.535Z,100.00
2022-08-01T22:07:15.858Z,100.00
2022-08-01T22:09:50.545Z,100.00
2022-08-01T22:12:21.796Z,100.00
2022-08-01T22:14:55.199Z,100.00
2022-08-01T22:17:25.767Z,100.00
2022-08-01T22:19:56.515Z,100.00
2022-08-01T22:22:50.429Z,100.00
2022-08-01T22:25:18.770Z,100.00
2022-08-01T22:28:06.508Z,100.00
2022-08-01T22:30:41.924Z,100.00
2022-08-01T22:33:15.756Z,100.00
2022-08-01T22:35:47.667Z,100.00
2022-08-01T22:38:20.132Z,100.00
2022-08-01T22:40:51.349Z,100.00
2022-08-01T22:43:27.361Z,100.00
2022-08-01T22:46:15.715Z,100.00
2022-08-01T22:48:52.229Z,100.00
2022-08-01T22:51:35.547Z,100.00
2022-08-01T22:54:10.293Z,100.00
2022-08-01T22:56:44.127Z,100.00
2022-08-01T22:59:17.395Z,100.00
2022-08-01T23:01:51.129Z,100.00
2022-08-01T23:04:33.334Z,100.00
2022-08-01T23:07:07.620Z,100.00
2022-08-01T23:09:53.078Z,100.00
2022-08-01T23:12:28.698Z,100.00
2022-08-01T23:15:00.905Z,100.00
2022-08-01T23:17:31.752Z,100.00
2022-08-01T23:20:04.729Z,100.00
2022-08-01T23:22:36.039Z,100.00
2022-08-01T23:25:09.888Z,100.00
2022-08-01T23:27:55.766Z,100.00
2022-08-01T23:30:32.708Z,100.00
2022-08-01T23:33:01.802Z,100.00
2022-08-01T23:35:35.390Z,100.00
2022-08-01T23:38:10.188Z,100.00
2022-08-01T23:40:40.538Z,100.00
2022-08-01T23:43:16.996Z,100.00
2022-08-01T23:46:04.213Z,100.00
2022-08-01T23:48:35.296Z,100.00
2022-08-01T23:51:05.431Z,100.00
2022-08-01T23:53:36.607Z,100.00
2022-08-01T23:56:09.147Z,100.00
2022-08-01T23:58:38.136Z,100.00
